createdAt,value
2023-02-11T00:01:17.180Z,98968.78
2023-02-11T00:03:48.419Z,98970.91
2023-02-11T00:06:20.650Z,98955.84
2023-02-11T00:08:47.250Z,98955.31
2023-02-11T00:11:15.979Z,98968.16
2023-02-11T00:13:46.343Z,98962.44
2023-02-11T00:16:16.299Z,98961.22
2023-02-11T00:18:45.845Z,98964.84
2023-02-11T00:21:18.190Z,98967.75
2023-02-11T00:23:50.059Z,98968.81
2023-02-11T00:26:16.562Z,98974.34
2023-02-11T00:28:46.352Z,98963.28
2023-02-11T00:31:17.549Z,98968.66
2023-02-11T00:33:44.604Z,98970.03
2023-02-11T00:36:19.994Z,98965.47
2023-02-11T00:38:48.490Z,98966.75
2023-02-11T00:41:16.641Z,98959.88
2023-02-11T00:43:46.022Z,98954.88
2023-02-11T00:46:18.153Z,98959.59
2023-02-11T00:48:46.922Z,98956.06
2023-02-11T00:51:15.903Z,98949.16
2023-02-11T00:53:42.486Z,98949.41
2023-02-11T00:56:12.125Z,98935.34
2023-02-11T00:58:41.421Z,98941.16
2023-02-11T01:01:08.039Z,98941.41
2023-02-11T01:03:34.913Z,98934.34
2023-02-11T01:06:03.897Z,98943.34
2023-02-11T01:08:35.253Z,98936.91
2023-02-11T01:11:08.038Z,98931.16
2023-02-11T01:13:36.136Z,98933.84
2023-02-11T01:16:07.707Z,98935.22
2023-02-11T01:18:39.225Z,98932.88
2023-02-11T01:21:05.926Z,98928.88
2023-02-11T01:23:34.561Z,98933.13
2023-02-11T01:26:01.084Z,98922.53
2023-02-11T01:28:29.888Z,98929.38
2023-02-11T01:30:59.157Z,98933.63
2023-02-11T01:33:28.049Z,98934.91
2023-02-11T01:35:56.872Z,98926.34
2023-02-11T01:38:26.635Z,98924.53
2023-02-11T01:40:59.239Z,98911.44
2023-02-11T01:43:28.047Z,98918.53
2023-02-11T01:45:59.197Z,98917.19
2023-02-11T01:48:38.858Z,98917.19
2023-02-11T01:51:15.682Z,98910.91
2023-02-11T01:54:06.751Z,98911.34
2023-02-11T01:56:58.454Z,98908.97
2023-02-11T01:59:32.291Z,98897.22
2023-02-11T02:02:03.629Z,98889.25
2023-02-11T02:04:38.463Z,98886.59
2023-02-11T02:07:29.307Z,98888.53
2023-02-11T02:10:01.198Z,98885.63
2023-02-11T02:12:30.077Z,98872.03
2023-02-11T02:15:33.841Z,98869.88
2023-02-11T02:18:00.368Z,98876.97
2023-02-11T02:20:54.456Z,98876.69
2023-02-11T02:23:29.474Z,98875.28
2023-02-11T02:26:33.278Z,98882.53
2023-02-11T02:29:27.265Z,98886.53
2023-02-11T02:32:11.749Z,98894.97
2023-02-11T02:34:41.220Z,98894.19
2023-02-11T02:37:18.878Z,98881.38
2023-02-11T02:39:48.605Z,98884.41
2023-02-11T02:42:21.514Z,98880.91
2023-02-11T02:44:55.096Z,98874.75
2023-02-11T02:47:24.194Z,98862.53
2023-02-11T02:49:50.777Z,98857.34
2023-02-11T02:52:28.753Z,98860.25
2023-02-11T02:55:22.970Z,98868.63
2023-02-11T02:57:58.655Z,98862.44
2023-02-11T03:00:34.740Z,98870.44
2023-02-11T03:03:04.092Z,98866.78
2023-02-11T03:05:58.490Z,98864.06
2023-02-11T03:08:34.651Z,98858.47
2023-02-11T03:11:03.402Z,98864.56
2023-02-11T03:13:34.013Z,98872.28
2023-02-11T03:16:27.032Z,98872.81
2023-02-11T03:19:03.899Z,98881.19
2023-02-11T03:21:35.868Z,98877.56
2023-02-11T03:24:07.733Z,98874.91
2023-02-11T03:26:51.448Z,98871.78
2023-02-11T03:29:32.261Z,98868.25
2023-02-11T03:32:08.527Z,98860.38
2023-02-11T03:34:42.694Z,98862.94
2023-02-11T03:37:29.762Z,98859.00
2023-02-11T03:40:11.873Z,98857.94
2023-02-11T03:43:01.200Z,98854.50
2023-02-11T03:45:28.770Z,98843.50
2023-02-11T03:48:03.991Z,98846.00
2023-02-11T03:50:35.089Z,98836.84
2023-02-11T03:53:06.127Z,98835.72
2023-02-11T03:55:36.799Z,98839.88
2023-02-11T03:58:03.401Z,98838.84
2023-02-11T04:00:36.769Z,98838.38
2023-02-11T04:03:04.609Z,98837.28
2023-02-11T04:05:31.905Z,98841.22
2023-02-11T04:07:58.540Z,98844.22
2023-02-11T04:10:35.672Z,98842.63
2023-02-11T04:13:06.871Z,98841.31
2023-02-11T04:15:33.417Z,98845.88
2023-02-11T04:18:03.977Z,98840.28
2023-02-11T04:20:33.255Z,98844.53
2023-02-11T04:22:59.853Z,98846.66
2023-02-11T04:25:27.279Z,98841.34
2023-02-11T04:27:53.854Z,98835.75
2023-02-11T04:30:22.899Z,98841.31
2023-02-11T04:32:49.454Z,98839.44
2023-02-11T04:35:16.148Z,98842.31
2023-02-11T04:37:47.452Z,98839.91
2023-02-11T04:40:13.965Z,98845.19
2023-02-11T04:42:45.045Z,98842.03
2023-02-11T04:45:14.153Z,98843.09
2023-02-11T04:47:45.455Z,98840.25
2023-02-11T04:50:12.027Z,98847.44
2023-02-11T04:52:38.624Z,98850.91
2023-02-11T04:55:05.484Z,98849.25
2023-02-11T04:57:34.474Z,98851.16
2023-02-11T05:00:01.002Z,98854.59
2023-02-11T05:02:27.609Z,98853.53
2023-02-11T05:04:54.158Z,98848.25
2023-02-11T05:07:20.694Z,98845.66
2023-02-11T05:09:47.293Z,98842.22
2023-02-11T05:12:13.820Z,98853.59
2023-02-11T05:14:40.544Z,98843.47
2023-02-11T05:17:09.896Z,98849.88
2023-02-11T05:19:36.459Z,98845.94
2023-02-11T05:22:03.833Z,98845.13
2023-02-11T05:24:32.281Z,98835.34
2023-02-11T05:26:59.048Z,98834.53
2023-02-11T05:29:27.980Z,98838.50
2023-02-11T05:31:57.558Z,98842.28
2023-02-11T05:34:26.361Z,98847.34
2023-02-11T05:36:52.941Z,98839.63
2023-02-11T05:39:21.563Z,98844.88
2023-02-11T05:41:50.589Z,98851.75
2023-02-11T05:44:17.162Z,98852.56
2023-02-11T05:46:49.228Z,98868.44
2023-02-11T05:49:17.514Z,98867.34
2023-02-11T05:51:44.168Z,98867.34
2023-02-11T05:54:11.089Z,98869.72
2023-02-11T05:56:37.777Z,98867.13
2023-02-11T05:59:04.433Z,98874.69
2023-02-11T06:01:31.123Z,98877.41
2023-02-11T06:03:57.820Z,98881.38
2023-02-11T06:06:29.204Z,98878.94
2023-02-11T06:08:56.505Z,98885.84
2023-02-11T06:11:25.548Z,98885.91
2023-02-11T06:13:54.376Z,98880.09
2023-02-11T06:16:23.383Z,98886.72
2023-02-11T06:18:49.992Z,98892.31
2023-02-11T06:21:21.275Z,98890.41
2023-02-11T06:23:47.917Z,98891.69
2023-02-11T06:26:20.499Z,98883.66
2023-02-11T06:28:49.791Z,98888.69
2023-02-11T06:31:18.959Z,98886.03
2023-02-11T06:33:45.711Z,98891.59
2023-02-11T06:36:19.021Z,98889.75
2023-02-11T06:38:46.789Z,98892.19
2023-02-11T06:41:21.242Z,98889.56
2023-02-11T06:43:48.326Z,98888.25
2023-02-11T06:46:15.618Z,98894.09
2023-02-11T06:48:44.748Z,98895.34
2023-02-11T06:51:13.439Z,98898.50
2023-02-11T06:53:43.779Z,98901.13
2023-02-11T06:56:16.814Z,98900.88
2023-02-11T06:58:43.714Z,98902.19
2023-02-11T07:01:29.122Z,98904.84
2023-02-11T07:03:57.886Z,98903.75
2023-02-11T07:06:28.082Z,98904.28
2023-02-11T07:08:55.705Z,98904.78
2023-02-11T07:11:25.928Z,98902.09
2023-02-11T07:13:54.239Z,98893.84
2023-02-11T07:16:23.355Z,98894.09
2023-02-11T07:18:50.141Z,98893.78
2023-02-11T07:21:26.339Z,98890.50
2023-02-11T07:23:55.609Z,98896.88
2023-02-11T07:26:24.245Z,98889.81
2023-02-11T07:28:53.875Z,98888.13
2023-02-11T07:31:26.746Z,98881.09
2023-02-11T07:33:56.021Z,98885.59
2023-02-11T07:36:23.390Z,98882.63
2023-02-11T07:38:52.651Z,98883.25
2023-02-11T07:41:25.531Z,98892.69
2023-02-11T07:43:57.352Z,98889.75
2023-02-11T07:46:29.288Z,98890.53
2023-02-11T07:48:56.209Z,98886.59
2023-02-11T07:51:25.397Z,98893.44
2023-02-11T07:53:52.666Z,98893.91
2023-02-11T07:56:22.595Z,98886.22
2023-02-11T07:58:49.979Z,98885.81
2023-02-11T08:01:28.702Z,98888.13
2023-02-11T08:03:57.338Z,98884.63
2023-02-11T08:06:29.663Z,98885.44
2023-02-11T08:09:05.867Z,98872.19
2023-02-11T08:11:38.280Z,98878.53
2023-02-11T08:14:07.293Z,98870.16
2023-02-11T08:16:38.804Z,98868.16
2023-02-11T08:19:11.012Z,98879.34
2023-02-11T08:21:40.404Z,98876.69
2023-02-11T08:24:07.478Z,98866.22
2023-02-11T08:26:37.840Z,98872.63
2023-02-11T08:29:10.586Z,98857.56
2023-02-11T08:31:43.256Z,98848.09
2023-02-11T08:34:11.667Z,98851.75
2023-02-11T08:36:39.482Z,98856.00
2023-02-11T08:39:19.072Z,98853.34
2023-02-11T08:41:54.026Z,98842.78
2023-02-11T08:44:24.417Z,98839.72
2023-02-11T08:46:54.176Z,98834.66
2023-02-11T08:49:21.364Z,98833.16
2023-02-11T08:51:48.856Z,98843.88
2023-02-11T08:54:18.242Z,98842.94
2023-02-11T08:56:47.560Z,98851.09
2023-02-11T08:59:15.466Z,98846.41
2023-02-11T09:01:42.330Z,98852.78
2023-02-11T09:04:10.428Z,98848.47
2023-02-11T09:06:37.006Z,98852.13
2023-02-11T09:09:10.387Z,98846.34
2023-02-11T09:11:36.924Z,98849.63
2023-02-11T09:14:06.821Z,98853.59
2023-02-11T09:16:37.745Z,98869.91
2023-02-11T09:19:07.875Z,98880.97
2023-02-11T09:21:34.748Z,98873.94
2023-02-11T09:24:06.586Z,98867.03
2023-02-11T09:26:35.782Z,98870.66
2023-02-11T09:29:04.441Z,98865.69
2023-02-11T09:31:34.928Z,98860.34
2023-02-11T09:34:04.806Z,98851.09
2023-02-11T09:36:38.410Z,98847.75
2023-02-11T09:39:08.303Z,98842.94
2023-02-11T09:41:37.702Z,98845.34
2023-02-11T09:44:08.413Z,98854.09
2023-02-11T09:46:43.577Z,98860.31
2023-02-11T09:49:20.335Z,98854.75
2023-02-11T09:52:06.436Z,98851.78
2023-02-11T09:54:49.693Z,98844.06
2023-02-11T09:57:28.265Z,98846.16
2023-02-11T09:59:56.997Z,98838.28
2023-02-11T10:02:43.273Z,98834.34
2023-02-11T10:05:27.639Z,98840.31
2023-02-11T10:08:16.907Z,98846.88
2023-02-11T10:10:57.913Z,98839.84
2023-02-11T10:14:07.644Z,98833.94
2023-02-11T10:16:51.315Z,98825.53
2023-02-11T10:19:39.439Z,98835.06
2023-02-11T10:22:17.437Z,98834.94
2023-02-11T10:24:51.692Z,98841.91
2023-02-11T10:27:24.817Z,98836.72
2023-02-11T10:30:06.890Z,98856.06
2023-02-11T10:32:51.398Z,98843.13
2023-02-11T10:35:21.722Z,98838.72
2023-02-11T10:37:50.510Z,98847.31
2023-02-11T10:40:20.641Z,98829.25
2023-02-11T10:42:51.215Z,98832.13
2023-02-11T10:45:32.670Z,98841.34
2023-02-11T10:48:06.343Z,98834.81
2023-02-11T10:50:36.982Z,98828.44
2023-02-11T10:53:24.465Z,98825.22
2023-02-11T10:55:58.130Z,98818.63
2023-02-11T10:58:28.998Z,98821.06
2023-02-11T11:00:58.417Z,98812.78
2023-02-11T11:03:34.567Z,98809.53
2023-02-11T11:06:04.213Z,98811.03
2023-02-11T11:08:47.065Z,98810.16
2023-02-11T11:11:16.537Z,98811.13
2023-02-11T11:13:59.165Z,98806.00
2023-02-11T11:16:32.224Z,98803.34
2023-02-11T11:19:07.673Z,98800.13
2023-02-11T11:21:41.136Z,98806.56
2023-02-11T11:24:22.066Z,98794.41
2023-02-11T11:26:57.466Z,98795.50
2023-02-11T11:29:33.170Z,98800.00
2023-02-11T11:32:11.671Z,98796.44
2023-02-11T11:34:41.918Z,98795.97
2023-02-11T11:37:15.237Z,98788.25
2023-02-11T11:39:48.685Z,98791.22
2023-02-11T11:42:29.707Z,98773.56
2023-02-11T11:44:58.318Z,98763.38
2023-02-11T11:47:34.312Z,98763.06
2023-02-11T11:50:38.374Z,98759.25
2023-02-11T11:53:16.755Z,98755.69
2023-02-11T11:55:47.089Z,98752.91
2023-02-11T11:58:21.459Z,98753.56
2023-02-11T12:01:01.981Z,98756.59
2023-02-11T12:03:57.436Z,98749.41
2023-02-11T12:06:41.117Z,98745.19
2023-02-11T12:09:20.241Z,98738.09
2023-02-11T12:12:11.392Z,98744.25
2023-02-11T12:14:56.702Z,98746.16
2023-02-11T12:17:54.347Z,98728.38
2023-02-11T12:20:28.034Z,98728.22
2023-02-11T12:22:54.513Z,98727.44
2023-02-11T12:25:35.774Z,98730.44
2023-02-11T12:28:14.363Z,98727.56
2023-02-11T12:31:05.342Z,98715.88
2023-02-11T12:33:44.776Z,98720.75
2023-02-11T12:36:46.613Z,98721.94
2023-02-11T12:39:48.686Z,98718.59
2023-02-11T12:43:06.757Z,98723.38
2023-02-11T12:45:35.873Z,98720.88
2023-02-11T12:48:23.504Z,98723.00
2023-02-11T12:50:56.833Z,98711.09
2023-02-11T12:53:32.138Z,98708.41
2023-02-11T12:56:05.547Z,98698.75
2023-02-11T12:58:45.107Z,98703.16
2023-02-11T13:01:20.851Z,98710.41
2023-02-11T13:03:54.710Z,98707.84
2023-02-11T13:06:29.354Z,98711.69
2023-02-11T13:09:06.168Z,98697.28
2023-02-11T13:11:41.386Z,98699.88
2023-02-11T13:14:27.392Z,98688.44
2023-02-11T13:16:58.655Z,98684.03
2023-02-11T13:19:35.022Z,98688.53
2023-02-11T13:22:20.439Z,98690.69
2023-02-11T13:25:07.379Z,98680.41
2023-02-11T13:27:51.334Z,98680.19
2023-02-11T13:30:27.206Z,98666.97
2023-02-11T13:32:53.688Z,98660.75
2023-02-11T13:35:29.744Z,98669.91
2023-02-11T13:37:57.871Z,98670.44
2023-02-11T13:40:27.949Z,98667.72
2023-02-11T13:42:57.354Z,98664.78
2023-02-11T13:45:57.463Z,98669.91
2023-02-11T13:48:35.962Z,98670.56
2023-02-11T13:51:07.376Z,98662.66
2023-02-11T13:53:50.457Z,98666.53
2023-02-11T13:56:34.659Z,98666.59
2023-02-11T13:59:23.120Z,98664.06
2023-02-11T14:02:12.518Z,98666.69
2023-02-11T14:05:21.293Z,98663.88
2023-02-11T14:08:28.084Z,98660.28
2023-02-11T14:10:57.352Z,98660.34
2023-02-11T14:13:32.016Z,98663.03
2023-02-11T14:16:10.632Z,98654.06
2023-02-11T14:18:59.493Z,98661.72
2023-02-11T14:21:26.522Z,98656.94
2023-02-11T14:24:14.490Z,98657.81
2023-02-11T14:26:53.975Z,98649.47
2023-02-11T14:29:42.346Z,98650.94
2023-02-11T14:32:27.345Z,98644.41
2023-02-11T14:35:05.087Z,98644.59
2023-02-11T14:37:50.486Z,98640.66
2023-02-11T14:40:35.792Z,98646.69
2023-02-11T14:43:15.103Z,98638.34
2023-02-11T14:45:46.921Z,98641.47
2023-02-11T14:48:19.673Z,98639.47
2023-02-11T14:50:53.370Z,98633.13
2023-02-11T14:53:25.567Z,98639.47
2023-02-11T14:55:56.536Z,98642.34
2023-02-11T14:58:30.221Z,98640.50
2023-02-11T15:01:03.345Z,98635.56
2023-02-11T15:03:40.528Z,98637.66
2023-02-11T15:06:12.961Z,98639.19
2023-02-11T15:08:45.830Z,98634.22
2023-02-11T15:11:18.654Z,98628.75
2023-02-11T15:13:49.727Z,98628.44
2023-02-11T15:16:22.377Z,98621.88
2023-02-11T15:18:54.249Z,98623.13
2023-02-11T15:21:26.880Z,98627.47
2023-02-11T15:24:24.109Z,98628.78
2023-02-11T15:27:15.499Z,98625.00
2023-02-11T15:29:45.309Z,98624.06
2023-02-11T15:32:17.067Z,98617.84
2023-02-11T15:34:45.411Z,98622.94
2023-02-11T15:37:30.220Z,98627.72
2023-02-11T15:40:10.130Z,98629.28
2023-02-11T15:42:51.887Z,98628.28
2023-02-11T15:45:44.547Z,98622.25
2023-02-11T15:48:22.001Z,98627.13
2023-02-11T15:51:02.472Z,98626.59
2023-02-11T15:53:35.705Z,98627.47
2023-02-11T15:56:08.162Z,98632.25
2023-02-11T15:58:45.057Z,98634.41
2023-02-11T16:01:17.136Z,98635.31
2023-02-11T16:03:52.200Z,98625.53
2023-02-11T16:06:35.487Z,98627.00
2023-02-11T16:09:04.763Z,98631.09
2023-02-11T16:11:38.434Z,98636.91
2023-02-11T16:14:20.671Z,98635.13
2023-02-11T16:16:50.345Z,98629.53
2023-02-11T16:19:25.688Z,98638.19
2023-02-11T16:21:54.159Z,98639.78
2023-02-11T16:24:35.118Z,98635.75
2023-02-11T16:27:08.131Z,98642.66
2023-02-11T16:29:37.441Z,98640.63
2023-02-11T16:32:15.799Z,98642.56
2023-02-11T16:34:42.731Z,98646.31
2023-02-11T16:37:09.548Z,98648.88
2023-02-11T16:39:36.455Z,98659.63
2023-02-11T16:42:06.415Z,98661.34
2023-02-11T16:44:34.959Z,98659.69
2023-02-11T16:47:06.113Z,98653.31
2023-02-11T16:49:39.702Z,98656.31
2023-02-11T16:52:12.124Z,98662.59
2023-02-11T16:54:41.163Z,98654.78
2023-02-11T16:57:19.232Z,98663.25
2023-02-11T16:59:49.589Z,98662.50
2023-02-11T17:02:27.517Z,98660.56
2023-02-11T17:04:55.471Z,98651.94
2023-02-11T17:07:22.448Z,98657.00
2023-02-11T17:09:49.033Z,98660.69
2023-02-11T17:12:15.626Z,98668.06
2023-02-11T17:14:46.724Z,98670.22
2023-02-11T17:17:14.181Z,98673.00
2023-02-11T17:19:40.711Z,98675.22
2023-02-11T17:22:11.534Z,98683.91
2023-02-11T17:24:38.145Z,98680.06
2023-02-11T17:27:07.145Z,98680.75
2023-02-11T17:29:36.842Z,98679.28
2023-02-11T17:32:03.462Z,98689.41
2023-02-11T17:34:32.508Z,98692.50
2023-02-11T17:37:00.246Z,98706.47
2023-02-11T17:39:27.610Z,98699.06
2023-02-11T17:41:54.294Z,98698.81
2023-02-11T17:44:21.174Z,98702.69
2023-02-11T17:46:47.775Z,98709.47
2023-02-11T17:49:17.073Z,98713.13
2023-02-11T17:51:45.996Z,98711.94
2023-02-11T17:54:16.873Z,98712.38
2023-02-11T17:56:44.234Z,98720.22
2023-02-11T17:59:14.405Z,98727.31
2023-02-11T18:01:44.722Z,98736.66
2023-02-11T18:04:15.489Z,98726.56
2023-02-11T18:06:42.228Z,98723.94
2023-02-11T18:09:09.229Z,98733.28
2023-02-11T18:11:38.179Z,98730.84
2023-02-11T18:14:07.777Z,98734.47
2023-02-11T18:16:39.253Z,98729.78
2023-02-11T18:19:07.476Z,98734.50
2023-02-11T18:21:34.105Z,98729.81
2023-02-11T18:24:05.974Z,98731.19
2023-02-11T18:26:33.171Z,98732.44
2023-02-11T18:29:00.517Z,98737.31
2023-02-11T18:31:27.837Z,98738.44
2023-02-11T18:33:54.418Z,98739.06
2023-02-11T18:36:22.213Z,98737.19
2023-02-11T18:38:52.676Z,98740.34
2023-02-11T18:41:21.850Z,98751.22
2023-02-11T18:43:48.642Z,98750.91
2023-02-11T18:46:16.018Z,98753.59
2023-02-11T18:48:47.641Z,98756.75
2023-02-11T18:51:18.755Z,98756.72
2023-02-11T18:53:45.653Z,98765.53
2023-02-11T18:56:15.147Z,98765.41
2023-02-11T18:58:44.202Z,98759.75
2023-02-11T19:01:12.253Z,98763.22
2023-02-11T19:03:41.241Z,98762.09
2023-02-11T19:06:13.330Z,98764.31
2023-02-11T19:08:39.891Z,98760.81
2023-02-11T19:11:06.516Z,98763.78
2023-02-11T19:13:35.371Z,98778.69
2023-02-11T19:16:10.175Z,98777.44
2023-02-11T19:18:38.784Z,98772.69
2023-02-11T19:21:12.367Z,98775.72
2023-02-11T19:23:38.969Z,98786.53
2023-02-11T19:26:06.518Z,98786.22
2023-02-11T19:28:35.456Z,98780.06
2023-02-11T19:31:07.911Z,98779.63
2023-02-11T19:33:37.546Z,98787.19
2023-02-11T19:36:11.954Z,98783.28
2023-02-11T19:38:38.530Z,98786.28
2023-02-11T19:41:05.298Z,98789.72
2023-02-11T19:43:36.549Z,98793.50
2023-02-11T19:46:04.574Z,98798.19
2023-02-11T19:48:31.222Z,98798.81
2023-02-11T19:51:00.001Z,98796.75
2023-02-11T19:53:29.021Z,98798.28
2023-02-11T19:55:55.536Z,98802.84
2023-02-11T19:58:22.068Z,98805.72
2023-02-11T20:00:51.577Z,98804.13
2023-02-11T20:03:20.359Z,98807.56
2023-02-11T20:05:47.854Z,98813.72
2023-02-11T20:08:17.034Z,98815.72
2023-02-11T20:10:43.684Z,98810.56
2023-02-11T20:13:10.895Z,98816.88
2023-02-11T20:15:41.983Z,98821.44
2023-02-11T20:18:10.628Z,98814.13
2023-02-11T20:20:38.423Z,98812.22
2023-02-11T20:23:04.972Z,98814.56
2023-02-11T20:25:31.520Z,98815.97
2023-02-11T20:27:58.057Z,98812.00
2023-02-11T20:30:27.089Z,98808.59
2023-02-11T20:32:58.603Z,98808.69
2023-02-11T20:35:25.193Z,98808.09
2023-02-11T20:37:54.235Z,98810.72
2023-02-11T20:40:20.817Z,98811.31
2023-02-11T20:42:49.682Z,98809.53
2023-02-11T20:45:18.494Z,98800.44
2023-02-11T20:47:45.054Z,98798.84
2023-02-11T20:50:11.992Z,98794.16
2023-02-11T20:52:38.617Z,98795.66
2023-02-11T20:55:14.041Z,98798.44
2023-02-11T20:57:54.411Z,98803.78
2023-02-11T21:00:23.802Z,98797.47
2023-02-11T21:02:53.629Z,98790.53
2023-02-11T21:05:20.458Z,98795.47
2023-02-11T21:07:46.967Z,98789.88
2023-02-11T21:10:15.944Z,98793.63
2023-02-11T21:12:42.524Z,98787.81
2023-02-11T21:15:11.265Z,98787.94
2023-02-11T21:17:37.818Z,98789.81
2023-02-11T21:20:07.764Z,98784.50
2023-02-11T21:22:34.341Z,98776.19
2023-02-11T21:25:03.157Z,98782.78
2023-02-11T21:27:33.768Z,98781.69
2023-02-11T21:30:03.340Z,98781.63
2023-02-11T21:32:32.138Z,98789.63
2023-02-11T21:35:03.591Z,98779.06
2023-02-11T21:37:32.505Z,98782.63
2023-02-11T21:39:59.046Z,98778.41
2023-02-11T21:42:25.638Z,98780.75
2023-02-11T21:44:52.213Z,98777.91
2023-02-11T21:47:18.807Z,98782.44
2023-02-11T21:49:45.350Z,98781.66
2023-02-11T21:52:11.929Z,98777.53
2023-02-11T21:54:38.538Z,98781.78
2023-02-11T21:57:07.325Z,98783.84
2023-02-11T21:59:33.868Z,98780.19
2023-02-11T22:02:00.524Z,98784.75
2023-02-11T22:04:27.231Z,98784.53
2023-02-11T22:06:56.143Z,98790.94
2023-02-11T22:09:22.665Z,98789.00
2023-02-11T22:11:49.665Z,98793.66
2023-02-11T22:14:17.106Z,98795.91
2023-02-11T22:16:47.895Z,98795.13
2023-02-11T22:19:17.399Z,98799.16
2023-02-11T22:21:43.949Z,98806.06
2023-02-11T22:24:10.559Z,98803.53
2023-02-11T22:26:41.617Z,98801.66
2023-02-11T22:29:12.749Z,98808.75
2023-02-11T22:31:41.914Z,98813.47
2023-02-11T22:34:10.986Z,98817.03
2023-02-11T22:36:40.501Z,98806.69
2023-02-11T22:39:14.900Z,98807.28
2023-02-11T22:41:46.661Z,98811.44
2023-02-11T22:44:20.069Z,98815.56
2023-02-11T22:46:46.668Z,98818.81
2023-02-11T22:49:17.481Z,98806.59
2023-02-11T22:51:49.004Z,98817.25
2023-02-11T22:54:19.372Z,98812.91
2023-02-11T22:56:49.725Z,98813.97
2023-02-11T22:59:16.310Z,98814.09
2023-02-11T23:01:46.650Z,98817.22
2023-02-11T23:04:19.253Z,98822.06
2023-02-11T23:06:48.525Z,98817.97
2023-02-11T23:09:15.135Z,98820.75
2023-02-11T23:11:44.574Z,98817.41
2023-02-11T23:14:12.218Z,98817.50
2023-02-11T23:16:39.596Z,98823.13
2023-02-11T23:19:10.296Z,98830.91
2023-02-11T23:21:38.918Z,98821.59
2023-02-11T23:24:10.758Z,98835.53
2023-02-11T23:26:41.056Z,98833.16
2023-02-11T23:29:08.816Z,98829.59
2023-02-11T23:31:39.881Z,98825.47
2023-02-11T23:34:11.729Z,98811.25
2023-02-11T23:36:38.268Z,98825.63
2023-02-11T23:39:08.145Z,98827.63
2023-02-11T23:41:36.817Z,98826.19
2023-02-11T23:44:03.406Z,98826.88
2023-02-11T23:46:32.028Z,98834.16
2023-02-11T23:49:00.823Z,98833.66
2023-02-11T23:51:27.521Z,98842.66
2023-02-11T23:53:56.144Z,98844.19
2023-02-11T23:56:30.931Z,98849.50
2023-02-11T23:59:00.843Z,98858.25
